Flight Track Log - Related Links

Times and Time Zones

All times are in EDT time to prevent confusion due to time zone crossing. See the EJA662 flight status page for this flight to view local times or setup timezone preferences in your user account.

Time Position Orientation Groundspeed Altitude Reporting Facility
EDT Latitude Longitude Course Direction KTS MPH feet Rate Location/Type
Sun 04:13:22 PM 31.1886 -81.3700 North 361 415 2,700  Level Jacksonville Center
Sun 04:14:23 PM 31.2553 -81.3592 North 261 300 5,900 3,400 Climbing Jacksonville Center
Sun 04:15:22 PM 31.3389 -81.3650 357° North 263 303 9,500 3,350 Climbing Jacksonville Center
Sun 04:16:23 PM 31.4164 -81.3783 352° North 281 323 12,600 3,100 Climbing Jacksonville Center
Sun 04:17:22 PM 31.4958 -81.3942 350° North 281 323 15,700 3,025 Climbing Jacksonville Center
Sun 04:18:22 PM 31.5647 -81.3833 North 273 314 18,600 2,800 Climbing Jacksonville Center
Sun 04:19:22 PM 31.6522 -81.3697 North 283 326 21,300 2,200 Climbing Jacksonville Center
Sun 04:20:22 PM 31.7333 -81.3586 North 312 359 23,000 1,800 Climbing Jacksonville Center
Sun 04:21:22 PM 31.8378 -81.3447 North 337 388 24,900 1,650 Climbing Jacksonville Center
Sun 04:22:22 PM 31.9419 -81.3306 North 358 412 26,300 1,450 Climbing Jacksonville Center
Sun 04:23:22 PM 32.0461 -81.3142 North 372 428 27,800 1,350 Climbing Jacksonville Center
Sun 04:24:22 PM 32.1503 -81.2953 North 372 428 29,000 600 Climbing Jacksonville Center
Sun 04:25:22 PM 32.2558 -81.2367 25° Northeast 392 451 29,000  Level Jacksonville Center
Sun 04:26:22 PM 32.3594 -81.1808 24° Northeast 407 468 29,000  Level Jacksonville Center
Sun 04:27:22 PM 32.4550 -81.1347 22° Northeast 401 461 29,000  Level Jacksonville Center
Sun 04:28:22 PM 32.5669 -81.0733 25° Northeast 401 461 29,000  Level Jacksonville Center
Sun 04:29:22 PM 32.6703 -81.0144 26° Northeast 395 455 29,000  Level Jacksonville Center
Sun 04:30:22 PM 32.7719 -80.9606 24° Northeast 395 455 29,000  Level Jacksonville Center
Sun 04:31:22 PM 32.8753 -80.9039 25° Northeast 395 455 29,000  Level Jacksonville Center
Sun 04:32:22 PM 32.9767 -80.8497 24° Northeast 395 455 29,000  Level Jacksonville Center
Sun 04:33:22 PM 33.0803 -80.7928 25° Northeast 395 455 29,000  Level Jacksonville Center
Sun 04:34:22 PM 33.1836 -80.7383 24° Northeast 395 455 29,000  Level Jacksonville Center
Sun 04:35:22 PM 33.2911 -80.6786 25° Northeast 395 455 29,000  Level Jacksonville Center
Sun 04:36:22 PM 33.4006 -80.6161 25° Northeast 413 475 29,000  Level Jacksonville Center
Sun 04:37:22 PM 33.5122 -80.5558 24° Northeast 425 489 29,000  Level Jacksonville Center
Sun 04:38:22 PM 33.6236 -80.4931 25° Northeast 436 502 29,000  Level Jacksonville Center
Sun 04:39:22 PM 33.7353 -80.4300 25° Northeast 436 502 29,000  Level Jacksonville Center
Sun 04:40:22 PM 33.8486 -80.3669 25° Northeast 436 502 29,000  Level Jacksonville Center
Sun 04:41:22 PM 33.9600 -80.3061 24° Northeast 442 509 29,000 -350 Level Jacksonville Center
Sun 04:42:22 PM 34.0672 -80.2428 26° Northeast 436 502 28,300 -1,500 Descending Jacksonville Center
Sun 04:43:22 PM 34.1786 -80.1792 25° Northeast 436 502 26,000 -2,400 Descending Jacksonville Center
Sun 04:44:22 PM 34.2922 -80.1203 23° Northeast 441 507 23,500 -2,400 Descending Jacksonville Center
Sun 04:45:22 PM 34.4033 -80.0564 25° Northeast 441 507 21,200 -920 Descending Jacksonville Center
Sun 04:47:05 PM 34.5700 -79.9578 26° Northeast 420 483 21,000 -73 Descending Washington Center
Sun 04:48:06 PM 34.6764 -79.9003 24° Northeast 420 483 21,000  Level Washington Center
Sun 04:49:07 PM 34.7828 -79.8378 26° Northeast 420 483 21,000  Level Washington Center
Sun 04:50:07 PM 34.8914 -79.7775 24° Northeast 420 483 21,000  Level Washington Center
Sun 04:51:05 PM 34.9958 -79.7144 26° Northeast 415 478 21,000  Level Washington Center
Sun 04:52:06 PM 35.1044 -79.6542 24° Northeast 415 478 21,000  Level Washington Center
Sun 04:53:07 PM 35.2108 -79.5933 25° Northeast 415 478 21,000 -303 Level Washington Center
Sun 04:54:05 PM 35.3133 -79.5222 30° Northeast 415 478 20,400 -1,075 Descending Washington Center
Sun 04:54:14 PM 35.3367 -79.5081 26° Northeast 422 486 19,800 -2,459 Descending Washington Center
Sun 04:55:06 PM 35.4222 -79.4458 31° Northeast 415 478 17,900 -2,092 Descending Washington Center
Sun 04:56:03 PM 35.5056 -79.3861 30° Northeast 345 397 16,000 -1,800 Descending Washington Center
Sun 04:56:06 PM 35.4989 -79.3908 210° Southwest 383 441 16,100 -2,129 Climbing Washington Center
Sun 04:57:05 PM 35.5625 -79.2944 51° Northeast 334 384 13,800 -2,017 Descending Washington Center
Sun 04:58:05 PM 35.6153 -79.2072 53° Northeast 337 388 12,100 -1,200 Descending Washington Center
Sun 04:58:35 PM 35.6461 -79.1525 55° Northeast 334 384 12,000 -295 Descending Washington Center
Sun 04:59:06 PM 35.6747 -79.1078 52° Northeast 331 381 11,800 -1,147 Descending Washington Center
Sun 04:59:43 PM 35.7053 -79.0581 53° Northeast 328 377 10,700 -1,627 Descending Washington Center
Sun 05:00:05 PM 35.7228 -79.0281 54° Northeast 326 375 10,200 -1,731 Descending Washington Center
Sun 05:00:35 PM 35.7514 -78.9756 56° Northeast 316 364 9,200 -1,600 Descending Washington Center
Sun 05:01:05 PM 35.7733 -78.9431 50° Northeast 315 362 8,600 -986 Descending Washington Center
Sun 05:01:48 PM 35.8161 -78.8989 40° Northeast 259 298 8,000 -590 Descending Washington Center
Sun 05:02:06 PM 35.8289 -78.8917 25° Northeast 292 336 8,000 -308 Level Washington Center
Sun 05:03:06 PM 35.9025 -78.8769 North 252 290 7,600 -1,081 Descending Washington Center
Sun 05:03:57 PM 35.9617 -78.8408 26° Northeast 267 307 6,000 -1,672 Descending Washington Center
Sun 05:04:07 PM 35.9661 -78.8358 42° Northeast 252 290 5,900 -1,837 Descending Washington Center
Sun 05:04:46 PM 36.0006 -78.7936 45° Northeast 258 297 4,500 -1,226 Descending Washington Center
Sun 05:05:40 PM 36.0417 -78.7361 49° Northeast 234 269 4,000 -857 Descending Washington Center
Sun 05:06:38 PM 36.0161 -78.6761 118° Southeast 181 208 2,900 -885 Descending Washington Center
Sun 05:07:42 PM 35.9658 -78.6869 190° South 171 197 2,200 -629 Descending Washington Center
Sun 05:08:42 PM 35.9333 -78.7319 228° Southwest 169 194 1,600 -709 Descending Washington Center
Sun 05:09:49 PM 35.9033 -78.7667 223° Southwest 130 150 700 -806 Descending Washington Center
Sun 05:11:00 PM 35.8776 -78.7875 194° South  Level Estimated
Sun 05:18:00 PM 35.8776 -78.7875 194° South  Level Estimated
Sun 05:19:00 PM 35.8776 -78.7875 194° South  Level Estimated

Login

Don't have an account? Register now (free) for customized features, flight alerts, and more!